CheckWX is a tool to help pilots better visualize weather data.  It is not intended as a substitute for an official pre-flight weather briefing.

20:34:11 UTC

KAKH METAR
Gastonia Municipal Airport
Gastonia, North Carolina, USA
Current

40 mins ago

KAKH 201954Z AUTO 19012G20KT 10SM FEW029 BKN033 BKN044 13/04 A2973 RMK AO2 SLP067 T01280044
Observed
Apr-20 @ 19:54 UTC
Wind
  • 190° at 12 KTS
  • Gusting to 20 KTS
Visibility
10 SM
Flight Rules
VFR
Cloud Levels
  • Few at 2,900' AGL
  • Broken at 3,300' AGL
  • Broken at 4,400' AGL
Temperature
13°C / 55°F
Dewpoint
C / 39°F
Humidity
55%
Altimeter
29.73" Hg
Pressure
1006.82 hPa
Previous

2 hours ago

KAKH 201854Z AUTO 19011G19KT 10SM FEW032 SCT050 BKN060 12/05 A2973 RMK AO2 RAB31E49 SLP066 P0001 T01170050
Observed
Apr-20 @ 18:54 UTC
Wind
  • 190° at 11 KTS
  • Gusting to 19 KTS
Visibility
10 SM
Flight Rules
VFR
Cloud Levels
  • Few at 3,200' AGL
  • Scattered at 5,000' AGL
  • Broken at 6,000' AGL
Temperature
12°C / 54°F
Dewpoint
C / 41°F
Humidity
63%
Altimeter
29.73" Hg
Pressure
1006.82 hPa
Current Rain
0.01"
Previous

3 hours ago

KAKH 201754Z AUTO 19007KT 160V220 10SM FEW031 BKN055 OVC085 12/05 A2974 RMK AO2 RAB17E30B38E49 SLP068 P0000 60000 T01220050 10133 20094 51004
Observed
Apr-20 @ 17:54 UTC
Wind
  • 190° at 7 KTS
Visibility
10 SM
Flight Rules
VFR
Cloud Levels
  • Few at 3,100' AGL
  • Broken at 5,500' AGL
  • Overcast at 8,500' AGL
Temperature
12°C / 54°F
Dewpoint
C / 41°F
Humidity
63%
Altimeter
29.74" Hg
Pressure
1007.12 hPa
Current Rain
0.01"